Time;durP1;ratioP1;P1;durP2;ratioP2;P2;SDS_P1;SDS_P2;PMS_P1;PMS_P2;Temp;Humidity;BMP_temperature;BMP_pressure;BME280_temperature;BME280_humidity;BME280_pressure;Samples;Min_cycle;Max_cycle;Signal;HPM_P1;HPM_P2
2023/09/09 00:01:21;;;;;;;0.60;0.60;;;17.60;99.90;;;;;;4990184;28;20074;-71
2023/09/09 00:03:47;;;;;;;0.30;0.30;;;17.60;99.90;;;;;;4969530;28;20096;-71
2023/09/09 00:06:14;;;;;;;0.68;0.50;;;17.50;99.90;;;;;;4990396;28;20046;-71
2023/09/09 00:08:40;;;;;;;0.60;0.60;;;17.60;99.90;;;;;;4986348;28;20471;-71
2023/09/09 00:11:09;;;;;;;0.35;0.35;;;17.50;99.90;;;;;;4989175;28;20048;-71
2023/09/09 00:13:35;;;;;;;0.40;0.40;;;17.50;99.90;;;;;;4987912;28;20551;-71
2023/09/09 00:16:01;;;;;;;0.45;0.45;;;17.40;99.90;;;;;;4987921;28;20050;-71
2023/09/09 00:18:26;;;;;;;0.60;0.60;;;17.40;99.90;;;;;;4996646;28;20137;-71
2023/09/09 00:20:52;;;;;;;0.40;0.40;;;17.40;99.90;;;;;;4994056;28;20053;-71
2023/09/09 00:23:19;;;;;;;0.38;0.38;;;17.40;99.90;;;;;;4979139;28;20073;-71
2023/09/09 00:25:44;;;;;;;0.30;0.30;;;17.30;99.90;;;;;;5004036;28;20053;-71
2023/09/09 00:28:11;;;;;;;1.00;1.00;;;17.30;99.90;;;;;;4991575;28;20042;-71
2023/09/09 00:30:37;;;;;;;0.70;0.70;;;17.30;99.90;;;;;;5003339;28;20046;-71
2023/09/09 00:33:04;;;;;;;0.50;0.50;;;17.30;99.90;;;;;;4998709;28;20591;-71
2023/09/09 00:35:32;;;;;;;0.25;0.25;;;17.20;99.90;;;;;;5008888;28;20502;-71
2023/09/09 00:37:58;;;;;;;0.43;0.43;;;17.20;99.90;;;;;;4991520;28;20538;-72
2023/09/09 00:40:24;;;;;;;1.52;0.77;;;17.10;99.90;;;;;;4993682;28;20061;-71
2023/09/09 00:42:50;;;;;;;0.50;0.50;;;17.10;99.90;;;;;;4990850;28;20132;-71
2023/09/09 00:45:16;;;;;;;1.08;0.43;;;17.00;99.90;;;;;;4992268;28;20038;-71
2023/09/09 00:47:42;;;;;;;0.40;0.40;;;17.00;99.90;;;;;;5000435;28;20426;-71
2023/09/09 00:50:13;;;;;;;0.30;0.30;;;17.00;99.90;;;;;;4990676;28;20050;-71
2023/09/09 00:52:40;;;;;;;0.30;0.30;;;17.00;99.90;;;;;;4988963;28;20054;-71
2023/09/09 00:55:11;;;;;;;0.35;0.35;;;17.00;99.90;;;;;;4989927;28;20050;-71
2023/09/09 00:57:37;;;;;;;0.65;0.65;;;16.90;99.90;;;;;;4997402;28;20054;-71
2023/09/09 01:00:09;;;;;;;0.55;0.55;;;16.90;99.90;;;;;;4991131;28;20510;-71
2023/09/09 01:02:39;;;;;;;0.57;0.57;;;16.90;99.90;;;;;;4984203;28;20054;-71
2023/09/09 01:05:06;;;;;;;0.57;0.50;;;16.90;99.90;;;;;;4996675;28;20125;-71
2023/09/09 01:07:45;;;;;;;0.73;0.73;;;16.90;99.90;;;;;;4997138;28;20487;-71
2023/09/09 01:10:11;;;;;;;0.45;0.45;;;16.90;99.90;;;;;;4990422;28;20808;-71
2023/09/09 01:12:37;;;;;;;0.50;0.50;;;16.90;99.90;;;;;;4979583;28;20411;-71
2023/09/09 01:15:05;;;;;;;0.40;0.40;;;16.90;99.90;;;;;;4999912;28;20042;-71
2023/09/09 01:17:31;;;;;;;0.73;0.73;;;16.80;99.90;;;;;;4992709;28;20525;-71
2023/09/09 01:19:59;;;;;;;0.65;0.65;;;16.80;99.90;;;;;;5008195;28;20065;-71
2023/09/09 01:22:25;;;;;;;0.30;0.30;;;16.80;99.90;;;;;;4999685;28;20046;-71
2023/09/09 01:24:51;;;;;;;1.05;0.85;;;16.80;99.90;;;;;;4989803;28;20487;-71
2023/09/09 01:27:16;;;;;;;0.45;0.45;;;16.80;99.90;;;;;;5006864;28;20030;-71
2023/09/09 01:29:42;;;;;;;0.30;0.30;;;16.80;99.90;;;;;;4983276;28;20038;-71
2023/09/09 01:32:08;;;;;;;1.33;0.82;;;16.70;99.90;;;;;;4990419;28;20077;-71
2023/09/09 01:34:34;;;;;;;0.40;0.40;;;16.70;99.90;;;;;;4992792;28;20605;-71
2023/09/09 01:37:00;;;;;;;0.30;0.30;;;16.70;99.90;;;;;;5007040;28;20044;-71
2023/09/09 01:39:26;;;;;;;0.75;0.75;;;16.70;99.90;;;;;;4989295;28;20648;-71
2023/09/09 01:41:51;;;;;;;0.50;0.50;;;16.70;99.90;;;;;;5003322;28;20404;-71
2023/09/09 01:44:17;;;;;;;0.20;0.20;;;16.70;99.90;;;;;;4982348;28;20069;-71
2023/09/09 01:46:43;;;;;;;0.40;0.40;;;16.60;99.90;;;;;;4993776;28;20124;-71
2023/09/09 01:49:08;;;;;;;0.50;0.50;;;16.70;99.90;;;;;;4990582;28;20128;-71
2023/09/09 01:51:35;;;;;;;0.50;0.43;;;16.60;99.90;;;;;;4986924;28;20056;-71
2023/09/09 01:54:01;;;;;;;0.30;0.30;;;16.60;99.90;;;;;;4985881;28;20395;-71
2023/09/09 01:56:26;;;;;;;0.47;0.47;;;16.60;99.90;;;;;;4998935;28;20139;-71
2023/09/09 01:58:53;;;;;;;0.80;0.80;;;16.60;99.90;;;;;;4981092;28;20057;-71
2023/09/09 02:01:18;;;;;;;0.22;0.22;;;16.60;99.90;;;;;;4988687;28;20045;-70
2023/09/09 02:03:44;;;;;;;0.40;0.40;;;16.50;99.90;;;;;;4996768;28;20415;-70
2023/09/09 02:06:10;;;;;;;0.65;0.65;;;16.50;99.90;;;;;;4997228;28;20097;-70
2023/09/09 02:08:36;;;;;;;0.35;0.35;;;16.50;99.90;;;;;;5000805;28;20046;-71
2023/09/09 02:11:02;;;;;;;0.28;0.28;;;16.50;99.90;;;;;;5002151;28;20487;-70
2023/09/09 02:13:29;;;;;;;0.47;0.47;;;16.50;99.90;;;;;;5005754;28;20108;-70
2023/09/09 02:16:05;;;;;;;0.52;0.52;;;16.50;99.90;;;;;;5000375;28;20061;-70
2023/09/09 02:18:33;;;;;;;0.40;0.40;;;16.40;99.90;;;;;;4977278;28;20058;-71
2023/09/09 02:20:59;;;;;;;0.50;0.50;;;16.40;99.90;;;;;;5008912;28;20455;-71
2023/09/09 02:23:25;;;;;;;0.40;0.40;;;16.40;99.90;;;;;;4993591;28;20053;-71
2023/09/09 02:25:51;;;;;;;0.45;0.45;;;16.40;99.90;;;;;;5004973;28;20145;-71
2023/09/09 02:28:17;;;;;;;0.50;0.50;;;16.40;99.90;;;;;;5009781;28;20081;-71
2023/09/09 02:30:44;;;;;;;0.43;0.43;;;16.40;99.90;;;;;;4989429;28;20042;-71
2023/09/09 02:33:10;;;;;;;0.65;0.65;;;16.30;99.90;;;;;;5002790;28;20042;-71
2023/09/09 02:35:40;;;;;;;0.30;0.30;;;16.40;99.90;;;;;;4990573;28;20141;-71
2023/09/09 02:38:06;;;;;;;0.30;0.30;;;16.30;99.90;;;;;;4991781;28;20462;-71
2023/09/09 02:40:33;;;;;;;0.63;0.63;;;16.30;99.90;;;;;;4985441;28;20054;-71
2023/09/09 02:42:59;;;;;;;0.40;0.40;;;16.30;99.90;;;;;;4986271;28;20069;-71
2023/09/09 02:45:25;;;;;;;0.60;0.60;;;16.30;99.90;;;;;;4995138;28;20487;-71
2023/09/09 02:47:51;;;;;;;0.47;0.47;;;16.30;99.90;;;;;;4986927;28;20153;-71
2023/09/09 02:50:16;;;;;;;0.57;0.57;;;16.30;99.90;;;;;;4992154;28;20050;-71
2023/09/09 02:52:42;;;;;;;0.30;0.30;;;16.30;99.90;;;;;;5009157;28;20105;-71
2023/09/09 02:55:10;;;;;;;0.30;0.30;;;16.30;99.90;;;;;;4998319;28;20058;-71
2023/09/09 02:57:36;;;;;;;0.52;0.52;;;16.30;99.90;;;;;;4992604;28;20060;-71
2023/09/09 03:00:03;;;;;;;0.40;0.40;;;16.20;99.90;;;;;;4997882;28;20057;-71
2023/09/09 03:02:29;;;;;;;0.30;0.30;;;16.20;99.90;;;;;;4990875;28;20053;-71
2023/09/09 03:04:57;;;;;;;0.30;0.30;;;16.20;99.90;;;;;;4988252;28;20692;-71
2023/09/09 03:07:23;;;;;;;0.30;0.30;;;16.20;99.90;;;;;;4990702;28;20046;-71
2023/09/09 03:09:48;;;;;;;0.32;0.32;;;16.20;99.90;;;;;;4997202;28;20510;-71
2023/09/09 03:12:20;;;;;;;0.80;0.80;;;16.20;99.90;;;;;;5006972;28;20054;-71
2023/09/09 03:14:49;;;;;;;0.30;0.30;;;16.20;99.90;;;;;;5007058;28;20507;-71
2023/09/09 03:17:15;;;;;;;0.40;0.40;;;16.20;99.90;;;;;;4991936;28;20065;-71
2023/09/09 03:19:41;;;;;;;0.55;0.55;;;16.20;99.90;;;;;;5008788;28;20053;-71
2023/09/09 03:22:07;;;;;;;2.13;1.65;;;16.10;99.90;;;;;;5004170;28;20494;-71
2023/09/09 03:24:32;;;;;;;0.57;0.57;;;16.10;99.90;;;;;;5002285;28;20523;-71
2023/09/09 03:26:58;;;;;;;0.50;0.50;;;16.10;99.90;;;;;;5004031;28;20076;-71
2023/09/09 03:29:23;;;;;;;0.40;0.40;;;16.10;99.90;;;;;;4990511;28;20053;-71
2023/09/09 03:31:49;;;;;;;1.13;1.13;;;16.10;99.90;;;;;;4988788;28;20074;-71
2023/09/09 03:34:15;;;;;;;0.65;0.65;;;16.10;99.90;;;;;;4992534;28;20562;-71
2023/09/09 03:36:42;;;;;;;0.40;0.40;;;16.10;99.90;;;;;;4999491;28;20133;-71
2023/09/09 03:39:08;;;;;;;0.40;0.40;;;16.00;99.90;;;;;;4980012;28;20491;-71
2023/09/09 03:41:34;;;;;;;0.50;0.50;;;16.00;99.90;;;;;;4992608;28;20064;-71
2023/09/09 03:44:00;;;;;;;0.30;0.30;;;16.00;99.90;;;;;;4989506;28;20563;-71
2023/09/09 03:46:25;;;;;;;0.43;0.43;;;16.00;99.90;;;;;;4992488;28;20049;-71
2023/09/09 03:48:51;;;;;;;0.63;0.63;;;16.00;99.90;;;;;;4987640;28;20046;-71
2023/09/09 03:51:17;;;;;;;0.40;0.40;;;15.90;99.90;;;;;;5010419;28;20458;-71
2023/09/09 03:53:42;;;;;;;0.60;0.60;;;15.90;99.90;;;;;;5007191;28;20049;-71
2023/09/09 03:56:08;;;;;;;0.40;0.40;;;15.90;99.90;;;;;;4979150;28;20168;-71
2023/09/09 03:58:34;;;;;;;0.30;0.30;;;15.90;99.90;;;;;;4978106;28;20062;-71
2023/09/09 04:01:06;;;;;;;0.43;0.43;;;15.90;99.90;;;;;;4991115;28;20054;-71
2023/09/09 04:03:35;;;;;;;0.50;0.50;;;15.90;99.90;;;;;;4983722;28;20120;-71
2023/09/09 04:06:11;;;;;;;0.40;0.40;;;15.90;99.90;;;;;;4989284;28;20056;-71
2023/09/09 04:08:38;;;;;;;0.50;0.50;;;15.90;99.90;;;;;;4992467;28;20064;-71
2023/09/09 04:11:06;;;;;;;0.50;0.50;;;15.80;99.90;;;;;;5006674;28;20033;-71
2023/09/09 04:13:32;;;;;;;0.57;0.50;;;15.90;99.90;;;;;;5009833;28;20053;-71
2023/09/09 04:15:59;;;;;;;0.50;0.50;;;15.90;99.90;;;;;;5002991;28;20053;-71
2023/09/09 04:18:26;;;;;;;0.30;0.30;;;15.80;99.90;;;;;;5008631;28;20050;-71
2023/09/09 04:20:52;;;;;;;0.25;0.25;;;15.90;99.90;;;;;;4987409;28;20069;-71
2023/09/09 04:23:19;;;;;;;0.45;0.45;;;15.90;99.90;;;;;;5007818;28;20046;-71
2023/09/09 04:25:45;;;;;;;1.40;0.50;;;15.80;99.90;;;;;;5009522;28;20042;-71
2023/09/09 04:28:11;;;;;;;0.47;0.47;;;15.80;99.90;;;;;;5007728;28;20049;-71
2023/09/09 04:30:40;;;;;;;0.40;0.40;;;15.80;99.90;;;;;;5008601;28;20447;-71
2023/09/09 04:33:07;;;;;;;1.63;1.17;;;15.80;99.90;;;;;;4991533;28;20041;-71
2023/09/09 04:35:33;;;;;;;0.55;0.55;;;15.80;99.90;;;;;;5004881;28;20054;-71
2023/09/09 04:37:59;;;;;;;0.80;0.80;;;15.80;99.90;;;;;;4988576;28;20050;-71
2023/09/09 04:40:24;;;;;;;0.40;0.40;;;15.80;99.90;;;;;;5007256;28;20488;-71
2023/09/09 04:42:50;;;;;;;0.93;0.93;;;15.70;99.90;;;;;;4989002;28;20049;-71
2023/09/09 04:45:16;;;;;;;0.47;0.47;;;15.70;99.90;;;;;;4979973;28;20042;-71
2023/09/09 04:47:42;;;;;;;0.93;0.60;;;15.70;99.90;;;;;;5004520;28;20124;-71
2023/09/09 04:50:08;;;;;;;1.50;1.02;;;15.70;99.90;;;;;;4989830;28;20053;-71
2023/09/09 04:52:33;;;;;;;0.28;0.28;;;15.70;99.90;;;;;;4992683;28;20099;-71
2023/09/09 04:54:59;;;;;;;0.50;0.50;;;15.70;99.90;;;;;;4999575;28;20685;-71
2023/09/09 04:57:25;;;;;;;0.40;0.40;;;15.70;99.90;;;;;;4994831;28;20056;-71
2023/09/09 04:59:50;;;;;;;0.40;0.40;;;15.70;99.90;;;;;;5006663;28;20517;-71
2023/09/09 05:02:16;;;;;;;0.30;0.30;;;15.70;99.90;;;;;;4997475;28;20038;-71
2023/09/09 05:04:42;;;;;;;0.40;0.40;;;15.60;99.90;;;;;;5007540;28;20033;-71
2023/09/09 05:07:09;;;;;;;0.30;0.30;;;15.60;99.90;;;;;;5005839;28;20052;-71
2023/09/09 05:09:35;;;;;;;0.45;0.45;;;15.60;99.90;;;;;;4987979;28;20096;-71
2023/09/09 05:12:01;;;;;;;0.85;0.70;;;15.50;99.90;;;;;;4982741;28;20054;-71
2023/09/09 05:14:26;;;;;;;0.73;0.73;;;15.50;99.90;;;;;;4989456;28;20092;-71
2023/09/09 05:16:52;;;;;;;0.43;0.43;;;15.50;99.90;;;;;;4987016;28;20458;-71
2023/09/09 05:19:18;;;;;;;0.32;0.32;;;15.50;99.90;;;;;;4988900;28;20053;-71
2023/09/09 05:21:43;;;;;;;1.00;1.00;;;15.50;99.90;;;;;;5006977;28;20046;-71
2023/09/09 05:24:09;;;;;;;0.30;0.30;;;15.50;99.90;;;;;;5004538;28;20053;-71
2023/09/09 05:26:35;;;;;;;0.30;0.30;;;15.50;99.90;;;;;;5006897;28;20046;-71
2023/09/09 05:29:02;;;;;;;0.50;0.50;;;15.60;99.90;;;;;;4987325;28;20590;-71
2023/09/09 05:31:27;;;;;;;0.30;0.30;;;15.60;99.90;;;;;;4989943;28;20108;-71
2023/09/09 05:33:53;;;;;;;0.55;0.55;;;15.60;99.90;;;;;;4991140;28;20447;-71
2023/09/09 05:36:18;;;;;;;0.40;0.40;;;15.70;99.90;;;;;;4985815;28;20058;-71
2023/09/09 05:38:45;;;;;;;0.73;0.73;;;15.70;99.90;;;;;;5001855;28;20782;-71
2023/09/09 05:41:11;;;;;;;0.75;0.75;;;15.80;99.90;;;;;;5007344;28;20463;-71
2023/09/09 05:43:36;;;;;;;0.50;0.50;;;15.80;99.90;;;;;;4991080;28;20069;-71
2023/09/09 05:46:03;;;;;;;0.60;0.60;;;15.90;99.90;;;;;;4990343;28;20056;-71
2023/09/09 05:48:29;;;;;;;0.30;0.30;;;16.00;99.90;;;;;;4980279;28;20096;-71
2023/09/09 05:50:55;;;;;;;0.43;0.43;;;16.10;99.90;;;;;;4991486;28;20062;-71
2023/09/09 05:53:21;;;;;;;0.50;0.50;;;16.10;99.90;;;;;;4988460;28;20117;-71
2023/09/09 05:55:47;;;;;;;1.65;0.40;;;16.20;99.90;;;;;;4991400;28;20153;-71
2023/09/09 05:58:13;;;;;;;2.95;1.15;;;16.30;99.90;;;;;;4989223;28;20125;-71
2023/09/09 06:00:38;;;;;;;0.50;0.50;;;16.40;99.90;;;;;;4990928;28;20046;-71
2023/09/09 06:03:04;;;;;;;0.55;0.55;;;16.50;99.90;;;;;;4988401;28;20052;-71
2023/09/09 06:05:30;;;;;;;0.43;0.43;;;16.60;99.90;;;;;;4992399;28;20045;-71
2023/09/09 06:07:57;;;;;;;0.75;0.75;;;16.70;99.90;;;;;;4987328;28;20151;-71
2023/09/09 06:10:22;;;;;;;0.65;0.65;;;16.70;99.90;;;;;;4992253;28;20050;-71
2023/09/09 06:12:49;;;;;;;0.32;0.32;;;16.80;99.90;;;;;;4991920;28;20049;-71
2023/09/09 06:15:14;;;;;;;0.50;0.50;;;16.80;99.90;;;;;;4996740;28;20042;-71
2023/09/09 06:17:41;;;;;;;0.57;0.57;;;16.80;99.90;;;;;;4986212;28;20132;-71
2023/09/09 06:20:09;;;;;;;0.70;0.43;;;16.80;99.90;;;;;;5003380;28;20054;-71
2023/09/09 06:22:35;;;;;;;0.50;0.50;;;16.80;99.90;;;;;;4987203;28;20050;-71
2023/09/09 06:25:01;;;;;;;0.45;0.45;;;16.90;99.90;;;;;;4990255;28;20053;-70
2023/09/09 06:27:27;;;;;;;0.50;0.50;;;16.90;99.90;;;;;;4987439;28;20073;-71
2023/09/09 06:29:52;;;;;;;0.85;0.82;;;16.90;99.90;;;;;;5006862;28;20050;-71
2023/09/09 06:32:18;;;;;;;0.30;0.30;;;17.00;99.90;;;;;;5007226;28;20060;-71
2023/09/09 06:34:44;;;;;;;0.52;0.52;;;17.10;99.90;;;;;;4987494;28;20045;-71
2023/09/09 06:37:10;;;;;;;0.30;0.30;;;17.20;99.90;;;;;;4999198;28;20510;-71
2023/09/09 06:39:36;;;;;;;0.30;0.30;;;17.20;99.90;;;;;;4990327;28;20050;-71
2023/09/09 06:42:02;;;;;;;0.40;0.40;;;17.30;99.90;;;;;;5009875;28;20042;-71
2023/09/09 06:44:28;;;;;;;0.30;0.30;;;17.40;99.90;;;;;;5006975;28;20049;-71
2023/09/09 06:46:54;;;;;;;0.40;0.40;;;17.50;99.90;;;;;;4992186;28;20193;-71
2023/09/09 06:49:19;;;;;;;0.70;0.70;;;17.60;99.90;;;;;;4981772;28;20057;-71
2023/09/09 06:51:46;;;;;;;0.93;0.93;;;17.70;99.90;;;;;;5005559;28;20066;-71
2023/09/09 06:54:11;;;;;;;0.40;0.40;;;17.90;99.90;;;;;;5003217;28;20061;-71
2023/09/09 06:59:16;;;;;;;0.90;0.75;;;18.30;99.90;;;;;;5012292;22;20827;-72
2023/09/09 07:01:42;;;;;;;0.70;0.70;;;18.60;99.90;;;;;;5016733;28;20061;-72
2023/09/09 07:04:08;;;;;;;0.70;0.70;;;18.80;99.90;;;;;;5016801;28;20045;-71
2023/09/09 07:06:34;;;;;;;0.88;0.85;;;19.10;99.90;;;;;;5028129;28;20119;-71
2023/09/09 07:08:59;;;;;;;0.50;0.50;;;19.40;99.90;;;;;;5027432;28;20171;-71
2023/09/09 07:11:25;;;;;;;2.47;0.50;;;19.60;99.90;;;;;;5029779;28;20053;-71
2023/09/09 07:13:51;;;;;;;0.30;0.30;;;19.90;99.90;;;;;;5028843;28;20041;-71
2023/09/09 07:16:16;;;;;;;0.50;0.50;;;20.20;99.90;;;;;;5027010;28;20452;-71
2023/09/09 07:18:42;;;;;;;0.28;0.28;;;20.50;99.90;;;;;;5029502;28;20044;-71
2023/09/09 07:21:07;;;;;;;0.50;0.50;;;20.80;99.90;;;;;;5027327;28;20075;-71
2023/09/09 07:23:34;;;;;;;0.30;0.30;;;21.10;99.90;;;;;;5025785;28;20091;-71
2023/09/09 07:26:00;;;;;;;0.47;0.47;;;21.40;99.90;;;;;;5027219;28;20059;-71
2023/09/09 07:28:26;;;;;;;0.38;0.38;;;21.70;99.90;;;;;;5025064;28;20049;-71
2023/09/09 07:30:52;;;;;;;0.65;0.65;;;22.00;99.90;;;;;;5026411;28;20046;-71
2023/09/09 07:33:18;;;;;;;0.30;0.30;;;22.20;99.90;;;;;;5025922;28;20042;-71
2023/09/09 07:35:45;;;;;;;1.38;1.30;;;22.60;99.90;;;;;;5028094;28;20041;-71
2023/09/09 07:38:10;;;;;;;0.63;0.63;;;22.90;99.90;;;;;;5028820;28;20065;-71
2023/09/09 07:40:36;;;;;;;0.35;0.35;;;23.10;99.90;;;;;;5028511;28;20112;-71
2023/09/09 07:43:02;;;;;;;0.95;0.95;;;23.40;99.90;;;;;;5028037;28;20488;-71
2023/09/09 07:45:28;;;;;;;0.40;0.40;;;23.60;99.90;;;;;;5028152;28;20044;-71
2023/09/09 07:47:54;;;;;;;0.30;0.30;;;23.80;99.90;;;;;;5028266;28;20124;-71
2023/09/09 07:50:20;;;;;;;0.70;0.70;;;24.10;99.90;;;;;;5024352;28;20076;-71
2023/09/09 07:52:46;;;;;;;0.60;0.60;;;24.30;99.90;;;;;;5026599;28;20048;-71
2023/09/09 07:55:12;;;;;;;0.47;0.47;;;24.50;99.90;;;;;;5027471;28;20041;-71
2023/09/09 07:57:38;;;;;;;0.75;0.75;;;24.70;99.90;;;;;;5027620;28;20588;-71
2023/09/09 08:00:07;;;;;;;0.43;0.43;;;24.90;99.90;;;;;;5027247;28;20136;-72
2023/09/09 08:02:33;;;;;;;0.40;0.40;;;25.20;99.90;;;;;;5028568;28;20053;-71
2023/09/09 08:04:59;;;;;;;0.40;0.40;;;25.40;99.90;;;;;;5024292;28;20054;-71
2023/09/09 08:07:24;;;;;;;0.40;0.40;;;25.70;99.90;;;;;;5028836;28;20052;-72
2023/09/09 08:09:50;;;;;;;1.05;0.50;;;25.80;99.90;;;;;;5027681;28;20049;-71
2023/09/09 08:12:16;;;;;;;0.47;0.47;;;26.00;99.90;;;;;;5023867;28;20669;-71
2023/09/09 08:14:44;;;;;;;0.50;0.50;;;26.20;99.90;;;;;;5026432;28;20055;-71
2023/09/09 08:17:10;;;;;;;0.73;0.73;;;26.30;99.90;;;;;;5026720;28;20048;-71
2023/09/09 08:19:35;;;;;;;0.55;0.55;;;26.50;99.90;;;;;;5027314;28;20393;-72
2023/09/09 08:22:01;;;;;;;0.63;0.63;;;26.70;99.90;;;;;;5023726;28;20100;-72
2023/09/09 08:24:27;;;;;;;0.50;0.50;;;26.80;99.90;;;;;;5026488;28;20048;-71
2023/09/09 08:26:52;;;;;;;0.55;0.55;;;26.90;99.90;;;;;;5025077;28;20103;-72
2023/09/09 08:29:18;;;;;;;0.60;0.60;;;27.00;99.90;;;;;;5027628;28;20120;-72
2023/09/09 08:31:47;;;;;;;1.08;1.05;;;27.10;99.90;;;;;;5025138;28;20045;-72
2023/09/09 08:34:13;;;;;;;0.52;0.52;;;27.30;99.90;;;;;;5025224;28;20122;-72
2023/09/09 08:36:38;;;;;;;0.68;0.65;;;27.40;99.90;;;;;;5026908;28;20490;-72
2023/09/09 08:39:05;;;;;;;0.70;0.70;;;27.50;99.90;;;;;;5023045;28;20099;-71
2023/09/09 08:41:49;;;;;;;0.77;0.77;;;27.70;99.90;;;;;;5023220;28;20426;-71
2023/09/09 08:44:59;;;;;;;0.52;0.52;;;27.90;99.90;;;;;;5023849;28;20307;-71
2023/09/09 08:47:25;;;;;;;0.70;0.60;;;28.10;99.90;;;;;;5022838;28;20053;-71
2023/09/09 08:49:52;;;;;;;0.60;0.60;;;28.20;99.90;;;;;;5024533;28;20041;-71
2023/09/09 08:52:24;;;;;;;0.35;0.35;;;28.40;99.90;;;;;;5026828;28;20049;-72
2023/09/09 08:54:51;;;;;;;0.60;0.60;;;28.60;99.90;;;;;;5023658;28;20037;-71
2023/09/09 08:57:17;;;;;;;1.25;1.15;;;28.80;99.90;;;;;;5025691;28;20041;-72
2023/09/09 08:59:46;;;;;;;1.10;1.10;;;28.90;99.90;;;;;;5021895;28;20095;-72
2023/09/09 09:02:12;;;;;;;1.30;1.23;;;29.10;99.90;;;;;;5025443;28;20429;-72
2023/09/09 09:04:38;;;;;;;0.77;0.77;;;29.20;99.90;;;;;;5027518;28;20137;-72
2023/09/09 09:07:05;;;;;;;0.63;0.63;;;29.20;99.90;;;;;;5031644;28;20045;-72
2023/09/09 09:09:34;;;;;;;0.75;0.75;;;29.40;99.90;;;;;;5027171;28;20181;-73
2023/09/09 09:12:01;;;;;;;0.60;0.60;;;29.60;99.90;;;;;;5027331;28;20444;-72
2023/09/09 09:14:27;;;;;;;0.40;0.40;;;29.70;99.90;;;;;;5026368;28;20056;-73
2023/09/09 09:16:54;;;;;;;0.70;0.70;;;29.90;99.90;;;;;;5006671;28;20053;-72
2023/09/09 09:19:26;;;;;;;0.70;0.70;;;30.10;99.90;;;;;;5013093;28;20037;-72
2023/09/09 09:21:53;;;;;;;0.60;0.60;;;30.40;99.90;;;;;;5027112;28;20045;-72
2023/09/09 09:24:28;;;;;;;0.95;0.95;;;30.50;99.90;;;;;;5009401;28;20497;-72
2023/09/09 09:26:55;;;;;;;1.15;1.15;;;30.70;99.90;;;;;;5009000;28;20475;-72
2023/09/09 09:29:21;;;;;;;0.75;0.75;;;30.90;99.90;;;;;;5009399;28;20049;-72
2023/09/09 09:31:52;;;;;;;0.50;0.50;;;31.20;99.90;;;;;;5009172;28;20053;-72
2023/09/09 09:34:19;;;;;;;0.60;0.60;;;31.30;99.90;;;;;;5026053;28;20470;-71
2023/09/09 09:36:46;;;;;;;0.73;0.73;;;31.50;99.90;;;;;;5026616;28;20767;-72
2023/09/09 09:39:12;;;;;;;1.07;1.07;;;31.80;99.90;;;;;;5026004;28;20434;-72
2023/09/09 09:41:41;;;;;;;0.80;0.80;;;32.00;99.90;;;;;;4997299;28;20126;-72
2023/09/09 09:44:18;;;;;;;1.17;1.17;;;32.10;99.90;;;;;;5026899;28;20049;-72
2023/09/09 09:47:04;;;;;;;1.13;1.13;;;32.20;99.90;;;;;;5030300;28;20037;-71
2023/09/09 09:49:44;;;;;;;1.42;1.30;;;32.30;99.90;;;;;;5023862;28;20117;-72
2023/09/09 09:52:21;;;;;;;0.95;0.95;;;32.40;99.90;;;;;;5007486;28;20053;-72
2023/09/09 09:54:51;;;;;;;0.70;0.70;;;32.50;99.90;;;;;;5009509;28;20443;-71
2023/09/09 09:57:20;;;;;;;0.82;0.82;;;32.60;99.90;;;;;;5021532;28;20132;-71
2023/09/09 09:59:46;;;;;;;0.63;0.63;;;32.70;99.90;;;;;;5026230;28;20077;-71
2023/09/09 10:02:14;;;;;;;0.60;0.60;;;32.70;99.90;;;;;;5026228;28;20092;-72
2023/09/09 10:04:46;;;;;;;0.82;0.82;;;32.80;99.90;;;;;;5026156;28;20045;-71
2023/09/09 10:07:16;;;;;;;0.60;0.60;;;32.80;99.90;;;;;;5031316;28;20052;-72
2023/09/09 10:09:57;;;;;;;0.85;0.82;;;32.80;99.90;;;;;;5027084;28;20551;-72
2023/09/09 10:12:47;;;;;;;0.60;0.60;;;32.80;99.90;;;;;;5024736;28;20053;-72
2023/09/09 10:15:15;;;;;;;0.80;0.80;;;32.90;99.90;;;;;;5025018;28;20498;-72
2023/09/09 10:17:42;;;;;;;0.60;0.60;;;33.00;99.90;;;;;;5025925;28;20049;-71
2023/09/09 10:20:08;;;;;;;0.73;0.73;;;33.10;99.90;;;;;;4988591;28;20079;-72
2023/09/09 10:22:36;;;;;;;0.75;0.75;;;33.20;99.90;;;;;;5025885;28;20087;-72
2023/09/09 10:25:05;;;;;;;1.15;1.05;;;33.20;99.90;;;;;;5025629;28;20056;-72
2023/09/09 10:27:33;;;;;;;0.95;0.77;;;33.30;99.90;;;;;;5010750;28;20091;-72
2023/09/09 10:30:00;;;;;;;1.30;1.23;;;33.20;99.90;;;;;;5026183;28;20068;-72
2023/09/09 10:32:26;;;;;;;1.00;1.00;;;33.30;99.90;;;;;;5025904;28;20450;-72
2023/09/09 10:34:53;;;;;;;0.50;0.50;;;33.30;99.90;;;;;;5028213;28;20045;-72
2023/09/09 10:37:19;;;;;;;1.00;0.98;;;33.30;99.90;;;;;;5025618;28;20040;-72
2023/09/09 10:39:48;;;;;;;0.80;0.80;;;33.50;99.90;;;;;;5024577;28;20398;-72
2023/09/09 10:42:15;;;;;;;1.02;1.02;;;33.50;99.90;;;;;;5022209;28;20084;-72
2023/09/09 10:44:45;;;;;;;0.77;0.77;;;33.50;99.90;;;;;;5022057;28;20041;-72
2023/09/09 10:47:15;;;;;;;0.70;0.70;;;33.60;99.90;;;;;;5027003;28;20060;-72
2023/09/09 10:49:41;;;;;;;0.93;0.93;;;33.60;99.90;;;;;;5026826;28;20042;-72
2023/09/09 10:52:06;;;;;;;1.13;1.00;;;33.60;99.90;;;;;;5029831;28;20049;-72
2023/09/09 10:54:33;;;;;;;1.58;1.48;;;33.70;99.90;;;;;;5028578;28;20041;-72
2023/09/09 10:57:02;;;;;;;0.70;0.70;;;33.80;99.90;;;;;;5029395;28;20067;-72
2023/09/09 10:59:33;;;;;;;0.60;0.60;;;33.80;99.50;;;;;;5028705;28;20076;-72
2023/09/09 11:02:10;;;;;;;1.00;1.00;;;33.80;99.90;;;;;;5009449;28;20050;-72
2023/09/09 11:04:40;;;;;;;0.88;0.88;;;33.90;99.90;;;;;;5002817;28;20054;-72
2023/09/09 11:07:10;;;;;;;1.23;0.90;;;33.90;99.60;;;;;;5009079;28;20080;-72
2023/09/09 11:09:37;;;;;;;0.68;0.68;;;34.00;99.70;;;;;;5003480;28;20050;-72
2023/09/09 11:12:13;;;;;;;1.17;1.13;;;34.00;99.00;;;;;;5008118;28;20096;-72
2023/09/09 11:14:45;;;;;;;0.90;0.90;;;34.00;98.90;;;;;;5007357;28;20054;-72
2023/09/09 11:17:11;;;;;;;1.20;1.13;;;34.10;99.20;;;;;;4983033;28;20537;-72
2023/09/09 11:19:39;;;;;;;4.30;1.33;;;34.20;99.40;;;;;;5006368;28;20050;-72
2023/09/09 11:22:07;;;;;;;1.27;0.88;;;34.20;98.50;;;;;;5007925;28;20639;-72
2023/09/09 11:24:34;;;;;;;0.60;0.60;;;34.20;98.70;;;;;;5004528;28;20081;-73
2023/09/09 11:27:00;;;;;;;1.02;1.02;;;34.20;98.40;;;;;;5001784;28;20050;-73
2023/09/09 11:29:25;;;;;;;0.40;0.40;;;34.30;96.90;;;;;;5007203;28;20402;-73
2023/09/09 11:31:52;;;;;;;0.60;0.60;;;34.20;97.00;;;;;;5008207;28;20056;-72
2023/09/09 11:34:26;;;;;;;0.65;0.65;;;34.30;97.80;;;;;;5008245;28;20072;-73
2023/09/09 11:36:53;;;;;;;8.15;0.80;;;34.40;96.60;;;;;;5003405;28;20387;-73
2023/09/09 11:39:19;;;;;;;0.98;0.98;;;34.40;96.00;;;;;;5010048;28;20069;-72
2023/09/09 11:41:44;;;;;;;4.33;0.97;;;34.50;97.00;;;;;;5010616;28;20603;-72
2023/09/09 11:44:10;;;;;;;0.80;0.80;;;34.50;96.50;;;;;;5008916;28;20709;-72
2023/09/09 11:46:40;;;;;;;0.70;0.70;;;34.50;96.40;;;;;;5008236;28;20117;-72
2023/09/09 11:49:06;;;;;;;0.73;0.73;;;34.50;96.40;;;;;;5005253;28;20582;-73
2023/09/09 11:51:33;;;;;;;0.90;0.90;;;34.60;96.20;;;;;;5007811;28;20057;-72
2023/09/09 11:54:02;;;;;;;0.73;0.73;;;34.50;95.70;;;;;;5004714;28;20069;-72
2023/09/09 11:56:29;;;;;;;0.50;0.50;;;34.60;96.30;;;;;;5007005;28;20052;-72
2023/09/09 11:58:55;;;;;;;0.70;0.70;;;34.50;95.40;;;;;;5009247;28;20639;-72
2023/09/09 12:01:22;;;;;;;1.00;1.00;;;34.50;95.30;;;;;;5008444;28;20085;-72
2023/09/09 12:03:49;;;;;;;1.38;1.17;;;34.50;94.80;;;;;;5009465;28;20052;-72
2023/09/09 12:06:17;;;;;;;1.10;1.00;;;34.50;95.70;;;;;;5010813;28;20045;-72
2023/09/09 12:08:43;;;;;;;0.70;0.70;;;34.40;95.40;;;;;;5008975;28;20088;-72
2023/09/09 12:11:12;;;;;;;1.05;1.05;;;34.40;95.20;;;;;;5008230;28;20058;-72
2023/09/09 12:13:38;;;;;;;0.85;0.85;;;34.40;94.70;;;;;;5007808;28;20481;-73
2023/09/09 12:16:08;;;;;;;0.82;0.82;;;34.50;94.50;;;;;;5004979;28;20038;-72
2023/09/09 12:18:33;;;;;;;1.88;1.77;;;34.50;94.90;;;;;;5008278;28;20041;-73
2023/09/09 12:21:12;;;;;;;0.60;0.60;;;34.60;93.70;;;;;;5009357;28;20045;-73
2023/09/09 12:23:39;;;;;;;0.65;0.65;;;34.60;94.60;;;;;;5006348;28;20049;-73
2023/09/09 12:26:14;;;;;;;1.08;1.08;;;34.60;94.20;;;;;;5011809;28;20054;-73
2023/09/09 12:28:45;;;;;;;0.68;0.68;;;34.50;94.30;;;;;;5007631;28;20046;-72
2023/09/09 12:31:12;;;;;;;0.88;0.88;;;34.60;94.50;;;;;;4993387;28;20095;-73
2023/09/09 12:33:44;;;;;;;0.68;0.68;;;34.50;93.20;;;;;;5003790;28;20033;-72
2023/09/09 12:36:15;;;;;;;0.70;0.70;;;34.20;93.70;;;;;;5006925;28;20053;-72
2023/09/09 12:38:41;;;;;;;0.73;0.73;;;34.10;94.40;;;;;;5002324;28;20045;-72
2023/09/09 12:41:07;;;;;;;0.60;0.60;;;34.20;94.40;;;;;;5010036;28;20528;-72
2023/09/09 12:43:34;;;;;;;0.70;0.70;;;34.20;94.40;;;;;;5008221;28;20037;-73
2023/09/09 12:46:04;;;;;;;1.65;1.58;;;34.00;93.50;;;;;;5007242;28;20367;-72
2023/09/09 12:48:30;;;;;;;1.17;1.13;;;33.80;93.60;;;;;;5011904;28;20054;-73
2023/09/09 12:50:55;;;;;;;1.33;1.13;;;33.70;94.50;;;;;;4993018;28;20042;-73